Grethel, Kentucky
Current Conditions -  °F | °C
As of 9:35 PM on Tuesday 21 Oct 2014 (Local Time) from KPBX Reporting Station
Overcast Overcast  
Wind Chill: 46°   Ceiling: 5000
Heat Index: 48°   Visibility: 10mi
Dew Point: 40°   Wind: 5mph
Humidity: 75%   Direction: 320°NW
Pressure: 30.1"   Gusts: NA
Location:  37.49°N, 82.65°W
Report Text: KPBX 220135Z AUTO 32004KT 10SM SCT039 OVC050 09/05 A3010 RMK AO2 T00870045
Loading
Personal Weather Stations






























Interactive Weather Map
Tropical Storm Tracking
New forecast layout! Learn more

10-Day Weather Forecast

Advertisements
Track Severe Weather on mobile